Time;durP1;ratioP1;P1;durP2;ratioP2;P2;SDS_P1;SDS_P2;PMS_P1;PMS_P2;Temp;Humidity;BMP_temperature;BMP_pressure;BME280_temperature;BME280_humidity;BME280_pressure;Samples;Min_cycle;Max_cycle;Signal;HPM_P1;HPM_P2
2020/12/06 00:01:48;;;;;;;17.90;12.82;;;2.50;93.30;;;;;;5017297;28;20029;-75
2020/12/06 00:04:19;;;;;;;17.20;12.27;;;2.50;93.30;;;;;;5035542;28;20025;-72
2020/12/06 00:06:46;;;;;;;16.45;12.90;;;2.50;93.30;;;;;;5018208;28;20495;-73
2020/12/06 00:09:11;;;;;;;16.05;12.05;;;2.60;93.30;;;;;;5035109;28;20025;-84
2020/12/06 00:11:37;;;;;;;14.98;11.90;;;2.60;93.20;;;;;;5018536;28;20032;-84
2020/12/06 00:14:03;;;;;;;13.85;11.80;;;2.60;93.20;;;;;;5018173;28;20049;-80
2020/12/06 00:16:29;;;;;;;18.38;11.40;;;2.50;93.20;;;;;;5036661;28;20021;-87
2020/12/06 00:18:54;;;;;;;18.65;11.88;;;2.50;93.20;;;;;;5018542;28;20398;-89
2020/12/06 00:21:21;;;;;;;14.32;11.70;;;2.50;93.20;;;;;;5018248;28;20018;-86
2020/12/06 00:23:47;;;;;;;15.23;11.43;;;2.40;93.20;;;;;;5018330;28;20034;-78
2020/12/06 00:26:21;;;;;;;14.63;11.73;;;2.40;93.30;;;;;;5035322;28;20128;-72
2020/12/06 00:28:48;;;;;;;15.25;10.98;;;2.50;93.30;;;;;;5035185;28;20036;-73
2020/12/06 00:31:13;;;;;;;15.10;11.95;;;2.50;93.30;;;;;;5035183;28;20382;-76
2020/12/06 00:33:39;;;;;;;13.82;11.20;;;2.50;93.30;;;;;;5017356;28;20024;-74
2020/12/06 00:36:05;;;;;;;14.18;11.43;;;2.50;93.30;;;;;;5016592;28;20108;-78
2020/12/06 00:38:31;;;;;;;15.45;12.20;;;2.50;93.30;;;;;;5035443;28;20017;-74
2020/12/06 00:40:56;;;;;;;14.90;11.57;;;2.50;93.40;;;;;;5016998;28;20386;-75
2020/12/06 00:43:21;;;;;;;17.17;12.48;;;2.40;93.40;;;;;;5016546;28;20401;-75
2020/12/06 00:45:47;;;;;;;15.40;11.98;;;2.40;93.40;;;;;;5035113;28;20025;-75
2020/12/06 00:48:13;;;;;;;15.85;12.02;;;2.40;93.40;;;;;;5017400;28;20025;-75
2020/12/06 00:50:38;;;;;;;14.85;12.80;;;2.40;93.40;;;;;;5034522;28;20099;-72
2020/12/06 00:53:04;;;;;;;16.30;11.80;;;2.30;93.50;;;;;;5016839;28;20505;-71
2020/12/06 00:55:30;;;;;;;16.67;11.88;;;2.30;93.50;;;;;;5034979;28;20033;-72
2020/12/06 00:57:55;;;;;;;16.13;13.15;;;2.40;93.50;;;;;;5033990;28;20061;-73
2020/12/06 01:00:21;;;;;;;18.25;12.90;;;2.40;93.50;;;;;;5035211;28;20018;-73
2020/12/06 01:02:46;;;;;;;15.38;12.38;;;2.30;93.50;;;;;;5034886;28;20037;-72
2020/12/06 01:05:12;;;;;;;15.75;12.50;;;2.30;93.50;;;;;;5016193;28;20025;-76
2020/12/06 01:07:38;;;;;;;17.63;11.85;;;2.30;93.50;;;;;;5034828;28;20052;-72
2020/12/06 01:10:08;;;;;;;16.58;12.02;;;2.30;93.50;;;;;;5034678;28;20108;-72
2020/12/06 01:12:34;;;;;;;16.33;12.30;;;2.30;93.50;;;;;;5034789;28;20033;-72
2020/12/06 01:15:00;;;;;;;14.05;11.85;;;2.30;93.50;;;;;;5034032;28;20029;-72
2020/12/06 01:17:26;;;;;;;15.40;11.50;;;2.40;93.50;;;;;;5016573;28;20025;-72
2020/12/06 01:19:51;;;;;;;15.73;12.38;;;2.40;93.50;;;;;;5034369;28;20025;-72
2020/12/06 01:22:17;;;;;;;13.93;11.63;;;2.40;93.50;;;;;;5016441;28;20095;-71
2020/12/06 01:24:43;;;;;;;17.13;12.38;;;2.40;93.50;;;;;;5012253;28;20228;-72
2020/12/06 01:27:08;;;;;;;16.50;12.57;;;2.40;93.50;;;;;;5012871;28;20091;-72
2020/12/06 01:29:34;;;;;;;18.65;12.63;;;2.40;93.50;;;;;;5014220;28;20049;-72
2020/12/06 01:31:59;;;;;;;15.73;11.88;;;2.40;93.50;;;;;;5013244;28;20434;-73
2020/12/06 01:34:25;;;;;;;18.00;12.70;;;2.40;93.50;;;;;;5014140;28;20022;-72
2020/12/06 01:36:51;;;;;;;16.50;12.48;;;2.40;93.60;;;;;;5014141;28;20010;-72
2020/12/06 01:39:20;;;;;;;15.57;11.73;;;2.50;93.60;;;;;;5013659;28;20033;-73
2020/12/06 01:41:46;;;;;;;15.00;12.13;;;2.40;93.50;;;;;;5013842;28;20033;-72
2020/12/06 01:44:11;;;;;;;14.60;11.48;;;2.40;93.50;;;;;;5012592;28;20034;-72
2020/12/06 01:46:39;;;;;;;14.38;11.68;;;2.40;93.50;;;;;;5013487;28;20025;-72
2020/12/06 01:49:08;;;;;;;16.92;12.55;;;2.40;93.50;;;;;;5013882;28;20030;-72
2020/12/06 01:51:34;;;;;;;17.85;12.02;;;2.30;93.40;;;;;;5014049;28;20017;-73
2020/12/06 01:54:02;;;;;;;14.00;11.65;;;2.30;93.40;;;;;;5011909;28;20029;-73
2020/12/06 01:56:27;;;;;;;15.77;11.63;;;2.40;93.50;;;;;;5014040;28;20021;-72
2020/12/06 01:58:53;;;;;;;14.73;12.35;;;2.30;93.40;;;;;;5013791;28;20524;-72
2020/12/06 02:01:18;;;;;;;14.32;11.38;;;2.30;93.50;;;;;;5011925;28;20052;-73
2020/12/06 02:03:44;;;;;;;17.05;12.68;;;2.30;93.50;;;;;;5013829;28;20034;-72
2020/12/06 02:06:09;;;;;;;16.27;12.27;;;2.30;93.50;;;;;;5013625;28;20062;-72
2020/12/06 02:08:35;;;;;;;17.35;12.45;;;2.30;93.50;;;;;;5012035;28;20501;-74
2020/12/06 02:11:02;;;;;;;17.38;12.60;;;2.30;93.50;;;;;;5009990;28;20045;-72
2020/12/06 02:13:27;;;;;;;15.50;11.82;;;2.40;93.60;;;;;;5012490;28;20478;-73
2020/12/06 02:15:54;;;;;;;14.98;12.60;;;2.40;93.60;;;;;;4993985;28;20026;-72
2020/12/06 02:18:20;;;;;;;17.33;13.00;;;2.50;93.50;;;;;;4997272;28;20081;-72
2020/12/06 02:20:46;;;;;;;16.48;12.07;;;2.50;93.50;;;;;;5010844;28;20728;-73
2020/12/06 02:23:12;;;;;;;18.15;11.85;;;2.50;93.50;;;;;;5009108;28;20124;-72
2020/12/06 02:25:39;;;;;;;15.32;12.20;;;2.50;93.50;;;;;;5025938;28;20120;-73
2020/12/06 02:28:06;;;;;;;15.30;12.73;;;2.50;93.50;;;;;;5012907;28;20021;-72
2020/12/06 02:30:33;;;;;;;15.70;13.43;;;2.50;93.40;;;;;;5014923;28;20045;-75
2020/12/06 02:32:59;;;;;;;15.93;11.05;;;2.50;93.70;;;;;;5032332;28;20119;-77
2020/12/06 02:35:25;;;;;;;17.52;12.52;;;2.50;93.40;;;;;;5032067;28;20020;-73
2020/12/06 02:37:50;;;;;;;15.70;12.02;;;2.50;93.40;;;;;;5032465;28;20101;-72
2020/12/06 02:40:16;;;;;;;14.90;12.00;;;2.50;93.50;;;;;;5015014;28;20108;-78
2020/12/06 02:42:42;;;;;;;16.77;12.55;;;2.60;93.50;;;;;;5014997;28;20029;-82
2020/12/06 02:45:08;;;;;;;15.75;12.25;;;2.60;93.50;;;;;;5038170;28;20025;-78
2020/12/06 02:47:33;;;;;;;15.20;11.80;;;2.60;93.40;;;;;;5023049;28;20025;-80
2020/12/06 02:49:59;;;;;;;14.75;11.93;;;2.60;93.40;;;;;;5039397;28;20025;-75
2020/12/06 02:52:25;;;;;;;16.60;11.98;;;2.60;93.40;;;;;;5022115;28;20479;-77
2020/12/06 02:54:50;;;;;;;14.82;12.45;;;2.60;93.40;;;;;;5022266;28;20051;-73
2020/12/06 02:57:16;;;;;;;14.73;11.90;;;2.70;93.40;;;;;;5038691;28;20478;-73
2020/12/06 02:59:41;;;;;;;15.82;12.32;;;2.60;93.40;;;;;;5039862;28;20021;-73
2020/12/06 03:02:07;;;;;;;16.30;12.07;;;2.60;93.30;;;;;;5039566;28;20036;-73
2020/12/06 03:04:32;;;;;;;15.55;12.07;;;2.70;93.40;;;;;;5021091;28;20051;-73
2020/12/06 03:06:58;;;;;;;16.35;12.15;;;2.60;93.30;;;;;;5039452;28;20034;-74
2020/12/06 03:09:23;;;;;;;17.27;13.30;;;2.70;93.30;;;;;;5039621;28;20025;-78
2020/12/06 03:11:49;;;;;;;16.17;13.05;;;2.70;93.30;;;;;;5038768;28;20386;-74
2020/12/06 03:14:15;;;;;;;15.98;12.40;;;2.70;93.30;;;;;;5039383;28;20087;-75
2020/12/06 03:16:40;;;;;;;15.07;12.45;;;2.70;93.30;;;;;;5039645;28;20037;-74
2020/12/06 03:19:06;;;;;;;15.98;11.77;;;2.70;93.30;;;;;;5021035;28;20021;-74
2020/12/06 03:21:31;;;;;;;19.38;12.10;;;2.70;93.30;;;;;;5021660;28;20041;-74
2020/12/06 03:23:57;;;;;;;15.50;12.07;;;2.70;93.30;;;;;;5038376;28;20041;-75
2020/12/06 03:26:22;;;;;;;13.02;11.18;;;2.70;93.30;;;;;;5039614;28;20029;-76
2020/12/06 03:28:48;;;;;;;14.38;11.73;;;2.70;93.30;;;;;;5021982;28;20017;-75
2020/12/06 03:31:14;;;;;;;15.77;12.27;;;2.70;93.30;;;;;;5020581;28;20469;-74
2020/12/06 03:33:39;;;;;;;15.77;12.68;;;2.70;93.30;;;;;;5005228;28;20033;-73
2020/12/06 03:36:05;;;;;;;15.40;12.73;;;2.70;93.30;;;;;;5039271;28;20473;-73
2020/12/06 03:38:30;;;;;;;15.95;12.13;;;2.70;93.30;;;;;;5038647;28;20025;-84
2020/12/06 03:40:56;;;;;;;14.50;12.27;;;2.70;93.30;;;;;;5021120;28;20024;-73
2020/12/06 03:43:21;;;;;;;14.95;11.50;;;2.70;93.30;;;;;;5038632;28;20037;-73
2020/12/06 03:45:47;;;;;;;16.85;12.85;;;2.70;93.30;;;;;;5020763;28;20048;-73
2020/12/06 03:48:12;;;;;;;16.23;11.98;;;2.70;93.30;;;;;;5038861;28;20140;-73
2020/12/06 03:50:38;;;;;;;14.52;12.38;;;2.70;93.30;;;;;;5021522;28;20026;-74
2020/12/06 03:53:04;;;;;;;15.00;12.48;;;2.80;93.30;;;;;;5038170;28;20080;-74
2020/12/06 03:55:30;;;;;;;16.25;12.32;;;2.80;93.30;;;;;;5037579;28;20546;-73
2020/12/06 03:57:55;;;;;;;14.18;11.40;;;2.80;93.30;;;;;;5017959;28;20028;-74
2020/12/06 04:00:21;;;;;;;16.67;13.13;;;2.80;93.40;;;;;;5035237;28;20021;-73
2020/12/06 04:02:50;;;;;;;15.43;12.38;;;2.80;93.30;;;;;;5035905;28;20363;-73
2020/12/06 04:05:23;;;;;;;16.52;12.60;;;2.80;93.30;;;;;;5036140;28;20056;-80
2020/12/06 04:07:49;;;;;;;15.85;12.02;;;2.90;93.30;;;;;;5017611;28;20022;-76
2020/12/06 04:10:16;;;;;;;15.30;12.70;;;2.90;93.30;;;;;;5018228;28;20477;-73
2020/12/06 04:12:41;;;;;;;14.07;11.52;;;2.90;93.30;;;;;;5017833;28;20040;-71
2020/12/06 04:15:07;;;;;;;14.32;11.55;;;2.90;93.30;;;;;;5016915;28;20025;-72
2020/12/06 04:17:33;;;;;;;15.65;11.90;;;2.90;93.40;;;;;;5017765;28;20032;-72
2020/12/06 04:19:58;;;;;;;14.35;12.43;;;2.90;93.40;;;;;;5017599;28;20022;-73
2020/12/06 04:22:24;;;;;;;15.80;12.85;;;2.90;93.40;;;;;;5017099;28;20088;-73
2020/12/06 04:24:49;;;;;;;14.70;12.10;;;2.90;93.40;;;;;;5014378;28;20157;-75
2020/12/06 04:27:15;;;;;;;16.27;12.50;;;3.00;93.40;;;;;;5015372;28;20029;-74
2020/12/06 04:29:40;;;;;;;16.30;12.75;;;2.90;93.40;;;;;;5015136;28;20038;-76
2020/12/06 04:32:06;;;;;;;16.23;12.88;;;3.00;93.40;;;;;;5016334;28;20018;-88
2020/12/06 04:34:31;;;;;;;16.33;12.63;;;3.00;93.40;;;;;;5014528;28;20383;-85
2020/12/06 04:36:57;;;;;;;14.40;12.15;;;3.00;93.40;;;;;;5014292;28;20058;-74
2020/12/06 04:39:22;;;;;;;15.05;13.25;;;3.10;93.40;;;;;;5015658;28;20029;-73
2020/12/06 04:41:48;;;;;;;17.13;12.40;;;3.10;93.40;;;;;;5013450;28;20022;-72
2020/12/06 04:44:14;;;;;;;15.77;12.88;;;3.10;93.40;;;;;;5014545;28;20038;-72
2020/12/06 04:46:40;;;;;;;16.67;12.40;;;3.10;93.40;;;;;;5013863;28;20029;-72
2020/12/06 04:49:06;;;;;;;18.92;12.38;;;3.10;93.40;;;;;;5014286;28;20030;-72
2020/12/06 04:51:54;;;;;;;16.67;12.40;;;3.10;93.40;;;;;;5014161;28;20068;-73
2020/12/06 04:54:26;;;;;;;14.57;12.00;;;3.20;93.40;;;;;;5015401;28;20037;-72
2020/12/06 04:57:00;;;;;;;18.60;13.43;;;3.20;93.40;;;;;;5006224;28;20034;-72
2020/12/06 04:59:27;;;;;;;16.98;13.30;;;3.20;93.40;;;;;;4994486;28;20018;-73
2020/12/06 05:01:55;;;;;;;19.38;12.98;;;3.10;93.30;;;;;;4992978;28;20026;-72
2020/12/06 05:04:22;;;;;;;16.98;12.93;;;3.20;93.30;;;;;;4993303;28;20026;-73
2020/12/06 05:06:48;;;;;;;15.98;13.23;;;3.20;93.30;;;;;;4992227;28;20037;-79
2020/12/06 05:09:15;;;;;;;25.98;15.65;;;3.20;93.30;;;;;;4992182;28;20026;-73
2020/12/06 05:11:42;;;;;;;18.95;13.88;;;3.20;93.30;;;;;;4993818;28;20467;-73
2020/12/06 05:14:09;;;;;;;15.98;13.88;;;3.20;93.20;;;;;;4992858;28;20034;-77
2020/12/06 05:16:38;;;;;;;17.80;13.95;;;3.20;93.20;;;;;;4993445;28;20027;-74
2020/12/06 05:19:06;;;;;;;17.30;13.35;;;3.30;93.20;;;;;;4993868;28;20019;-76
2020/12/06 05:21:39;;;;;;;17.50;14.63;;;3.20;93.10;;;;;;4995236;28;20084;-79
2020/12/06 05:24:05;;;;;;;16.38;13.43;;;3.30;93.20;;;;;;4995724;28;20038;-75
2020/12/06 05:26:32;;;;;;;17.45;13.75;;;3.30;93.10;;;;;;5014791;28;20036;-75
2020/12/06 05:28:59;;;;;;;16.85;13.50;;;3.30;93.10;;;;;;5013953;28;20497;-75
2020/12/06 05:31:25;;;;;;;16.88;13.90;;;3.30;93.00;;;;;;4996393;28;20106;-74
2020/12/06 05:33:51;;;;;;;16.92;14.15;;;3.30;93.00;;;;;;4996759;28;20463;-72
2020/12/06 05:36:18;;;;;;;18.10;13.43;;;3.30;93.00;;;;;;4996937;28;20475;-73
2020/12/06 05:38:43;;;;;;;16.10;14.10;;;3.30;93.00;;;;;;4996305;28;20021;-72
2020/12/06 05:41:09;;;;;;;17.55;14.52;;;3.30;93.00;;;;;;5014137;28;20033;-72
2020/12/06 05:43:36;;;;;;;17.42;14.40;;;3.30;93.00;;;;;;4996425;28;20041;-80
2020/12/06 05:46:09;;;;;;;15.65;13.35;;;3.30;93.00;;;;;;5012264;28;20025;-72
2020/12/06 05:48:35;;;;;;;19.35;14.18;;;3.30;92.90;;;;;;4996729;28;20030;-79
2020/12/06 05:51:01;;;;;;;19.48;15.55;;;3.30;92.90;;;;;;4996416;28;20028;-72
2020/12/06 05:53:28;;;;;;;17.85;14.77;;;3.40;92.90;;;;;;5013439;28;20033;-73
2020/12/06 05:56:04;;;;;;;20.77;15.55;;;3.40;92.90;;;;;;5013967;28;20451;-73
2020/12/06 05:58:31;;;;;;;18.65;14.80;;;3.40;92.90;;;;;;5014126;28;20049;-75
2020/12/06 06:00:59;;;;;;;19.05;15.18;;;3.40;92.90;;;;;;4996273;28;20017;-72
2020/12/06 06:03:28;;;;;;;20.58;16.00;;;3.40;92.90;;;;;;5013778;28;20437;-74
2020/12/06 06:05:56;;;;;;;22.42;16.52;;;3.40;92.90;;;;;;5013305;28;20030;-73
2020/12/06 06:08:25;;;;;;;19.10;14.95;;;3.40;92.80;;;;;;4996387;28;20485;-77
2020/12/06 06:11:09;;;;;;;20.35;15.30;;;3.40;92.80;;;;;;5013889;28;20018;-79
2020/12/06 06:13:42;;;;;;;20.55;15.82;;;3.40;92.80;;;;;;4995772;28;20026;-75
2020/12/06 06:16:08;;;;;;;19.35;16.08;;;3.40;92.80;;;;;;5013455;28;20117;-73
2020/12/06 06:18:33;;;;;;;21.70;15.68;;;3.40;92.80;;;;;;4995714;28;20049;-72
2020/12/06 06:21:00;;;;;;;22.42;17.58;;;3.40;92.70;;;;;;5012712;28;20479;-81
2020/12/06 06:23:26;;;;;;;22.58;16.50;;;3.40;92.70;;;;;;4995866;28;20069;-73
2020/12/06 06:25:52;;;;;;;21.00;16.13;;;3.40;92.60;;;;;;4995892;28;20042;-73
2020/12/06 06:28:18;;;;;;;21.92;16.42;;;3.40;92.60;;;;;;4995460;28;20030;-74
2020/12/06 06:30:44;;;;;;;22.05;17.05;;;3.50;92.70;;;;;;5013646;28;20475;-73
2020/12/06 06:33:13;;;;;;;22.77;17.58;;;3.50;92.70;;;;;;5013154;28;20040;-73
2020/12/06 06:35:45;;;;;;;26.25;19.13;;;3.50;92.80;;;;;;5011529;28;20037;-73
2020/12/06 06:38:11;;;;;;;22.10;18.58;;;3.50;92.70;;;;;;4995411;28;20057;-73
2020/12/06 06:40:37;;;;;;;23.77;17.60;;;3.50;92.70;;;;;;5013285;28;20024;-72
2020/12/06 06:43:05;;;;;;;23.15;18.17;;;3.50;92.70;;;;;;5012373;28;20033;-72
2020/12/06 06:45:42;;;;;;;23.85;18.65;;;3.50;92.70;;;;;;4995926;28;20026;-72
2020/12/06 06:48:10;;;;;;;23.52;18.23;;;3.50;92.70;;;;;;5012638;28;20033;-72
2020/12/06 06:50:37;;;;;;;27.80;19.20;;;3.60;92.70;;;;;;5013345;28;20153;-73
2020/12/06 06:53:03;;;;;;;26.02;18.88;;;3.60;92.60;;;;;;5012805;28;20026;-74
2020/12/06 06:55:47;;;;;;;24.98;18.13;;;3.50;92.60;;;;;;5012863;28;20072;-74
2020/12/06 06:58:16;;;;;;;26.88;19.45;;;3.60;92.60;;;;;;5014381;28;20034;-76
2020/12/06 07:00:41;;;;;;;22.98;17.75;;;3.60;92.60;;;;;;5021534;28;20057;-71
2020/12/06 07:03:11;;;;;;;22.40;17.63;;;3.60;92.60;;;;;;5031582;28;20120;-70
2020/12/06 07:05:37;;;;;;;25.60;18.63;;;3.70;92.70;;;;;;5032971;28;20032;-73
2020/12/06 07:08:10;;;;;;;26.75;19.20;;;3.70;92.70;;;;;;5015145;28;20112;-72
2020/12/06 07:10:38;;;;;;;24.65;18.98;;;3.70;92.70;;;;;;5014263;28;20048;-72
2020/12/06 07:13:05;;;;;;;26.15;19.77;;;3.80;92.70;;;;;;5031753;28;20053;-80
2020/12/06 07:15:31;;;;;;;20.35;16.63;;;3.80;92.40;;;;;;5014718;28;20064;-72
2020/12/06 07:17:57;;;;;;;24.33;18.33;;;3.70;92.10;;;;;;5030540;28;20049;-71
2020/12/06 07:20:24;;;;;;;26.95;18.67;;;3.70;92.20;;;;;;5015359;28;20370;-75
2020/12/06 07:22:52;;;;;;;23.92;18.15;;;3.80;92.20;;;;;;5032180;28;20371;-71
2020/12/06 07:25:19;;;;;;;125.88;26.80;;;3.80;92.20;;;;;;4999319;28;20050;-72
2020/12/06 07:27:46;;;;;;;25.95;17.85;;;3.80;92.20;;;;;;4993048;28;20121;-73
2020/12/06 07:30:14;;;;;;;26.35;19.77;;;3.70;92.20;;;;;;4992501;28;20750;-73
2020/12/06 07:32:40;;;;;;;22.92;18.65;;;3.80;92.30;;;;;;4995613;28;20034;-76
2020/12/06 07:35:07;;;;;;;25.45;19.42;;;3.70;92.20;;;;;;4996556;28;20035;-72
2020/12/06 07:37:33;;;;;;;24.30;18.88;;;3.70;92.20;;;;;;4996608;28;20098;-74
2020/12/06 07:39:59;;;;;;;26.58;20.08;;;3.80;92.30;;;;;;4995489;28;20035;-76
2020/12/06 07:42:27;;;;;;;24.88;19.40;;;3.80;92.30;;;;;;4995300;28;20068;-77
2020/12/06 07:44:54;;;;;;;34.78;22.25;;;3.80;92.30;;;;;;4989435;28;20410;-75
2020/12/06 07:47:21;;;;;;;26.83;20.52;;;3.90;92.20;;;;;;4992545;28;20038;-72
2020/12/06 07:49:49;;;;;;;25.75;19.20;;;3.90;92.20;;;;;;4994815;28;20387;-74
2020/12/06 07:52:24;;;;;;;26.27;19.65;;;3.90;92.20;;;;;;4995367;28;20025;-74
2020/12/06 07:54:57;;;;;;;24.33;18.80;;;3.90;92.20;;;;;;4996034;28;20494;-73
2020/12/06 07:57:37;;;;;;;27.38;20.15;;;3.90;92.20;;;;;;4994064;28;20031;-72
2020/12/06 08:00:11;;;;;;;25.20;19.23;;;3.90;92.00;;;;;;4995080;28;20069;-72
2020/12/06 08:02:41;;;;;;;24.38;19.48;;;4.00;92.00;;;;;;4994544;28;20042;-73
2020/12/06 08:05:09;;;;;;;26.25;19.17;;;4.10;92.00;;;;;;4994486;28;20033;-71
2020/12/06 08:07:40;;;;;;;24.08;19.10;;;4.20;91.90;;;;;;4995724;28;20101;-76
2020/12/06 08:10:12;;;;;;;26.98;18.80;;;4.20;91.70;;;;;;4994067;28;20018;-73
2020/12/06 08:12:41;;;;;;;26.15;18.83;;;4.30;91.70;;;;;;4993853;28;20022;-77
2020/12/06 08:15:07;;;;;;;25.48;19.15;;;4.40;91.60;;;;;;4993828;28;20034;-74
2020/12/06 08:17:45;;;;;;;24.63;19.35;;;4.40;91.60;;;;;;4994813;28;20045;-80
2020/12/06 08:20:13;;;;;;;24.65;19.23;;;4.50;91.50;;;;;;4993646;28;20542;-76
2020/12/06 08:22:59;;;;;;;23.63;19.20;;;4.50;91.50;;;;;;4994195;28;20031;-76
2020/12/06 08:25:29;;;;;;;22.73;18.73;;;4.60;91.50;;;;;;5020196;28;20077;-75
2020/12/06 08:27:56;;;;;;;25.35;18.92;;;4.60;91.40;;;;;;5015717;28;20040;-76
2020/12/06 08:30:23;;;;;;;22.95;18.75;;;4.70;91.40;;;;;;5034874;28;20092;-76
2020/12/06 08:33:20;;;;;;;25.20;18.83;;;4.80;91.40;;;;;;5031393;28;20026;-86
2020/12/06 08:35:47;;;;;;;23.02;17.90;;;4.80;91.30;;;;;;5022833;28;20033;-83
2020/12/06 08:38:27;;;;;;;25.42;18.58;;;4.90;91.20;;;;;;4998088;28;20033;-83
2020/12/06 08:41:06;;;;;;;25.35;19.77;;;5.00;91.10;;;;;;5008663;28;20117;-82
2020/12/06 08:43:47;;;;;;;429.75;37.22;;;5.00;91.00;;;;;;5015703;28;20033;-81
2020/12/06 08:46:18;;;;;;;24.02;19.60;;;5.00;90.90;;;;;;5034982;28;20025;-86
2020/12/06 08:49:10;;;;;;;27.00;20.15;;;4.90;90.80;;;;;;5034811;28;20037;-86
2020/12/06 08:52:28;;;;;;;112.03;24.58;;;4.90;90.70;;;;;;5019986;28;20040;-87
2020/12/06 08:55:30;;;;;;;26.77;20.77;;;4.90;90.60;;;;;;5031802;28;20112;-82
2020/12/06 08:58:40;;;;;;;25.48;19.00;;;4.80;90.80;;;;;;5032219;28;20190;-80
2020/12/06 09:08:11;;;;;;;26.52;20.27;;;4.80;91.00;;;;;;4994991;28;20623;-80
2020/12/06 09:10:36;;;;;;;27.38;21.38;;;4.80;91.00;;;;;;4976092;28;20069;-80
2020/12/06 09:13:02;;;;;;;24.77;19.75;;;4.80;90.90;;;;;;4995712;28;20061;-76
2020/12/06 09:15:28;;;;;;;27.23;21.58;;;4.90;90.90;;;;;;5015918;28;20153;-83
2020/12/06 09:17:58;;;;;;;27.50;20.60;;;4.90;90.80;;;;;;5009296;28;20207;-88
2020/12/06 09:20:25;;;;;;;25.73;20.27;;;5.00;90.60;;;;;;4996154;28;20014;-85
2020/12/06 09:22:50;;;;;;;53.30;21.65;;;5.10;90.60;;;;;;5010672;28;20053;-84
2020/12/06 09:25:16;;;;;;;26.40;20.85;;;5.10;90.40;;;;;;4995401;28;20190;-85
2020/12/06 09:27:42;;;;;;;24.88;20.35;;;5.00;90.60;;;;;;4994811;28;20041;-81
2020/12/06 09:30:10;;;;;;;27.58;21.42;;;5.10;90.50;;;;;;5010970;28;20038;-86
2020/12/06 09:32:36;;;;;;;27.65;22.05;;;5.10;90.50;;;;;;5015809;28;20482;-75
2020/12/06 09:35:01;;;;;;;27.00;21.95;;;5.20;90.40;;;;;;5015759;28;20044;-75
2020/12/06 09:37:27;;;;;;;26.92;21.50;;;5.30;90.30;;;;;;5033233;28;20030;-74
2020/12/06 09:39:52;;;;;;;25.50;20.38;;;5.30;90.10;;;;;;5032924;28;20027;-74
2020/12/06 09:42:18;;;;;;;28.35;20.92;;;5.40;90.00;;;;;;5029274;28;20030;-74
2020/12/06 09:44:43;;;;;;;25.83;20.13;;;5.40;90.00;;;;;;4995899;28;20117;-75
2020/12/06 09:47:09;;;;;;;26.08;20.15;;;5.50;90.00;;;;;;4995315;28;20034;-74
2020/12/06 09:49:35;;;;;;;27.20;21.88;;;5.60;90.00;;;;;;5015277;28;20028;-74
2020/12/06 09:52:02;;;;;;;27.40;21.20;;;5.70;89.70;;;;;;5014946;28;20033;-78
2020/12/06 09:54:27;;;;;;;25.83;18.67;;;5.80;89.00;;;;;;5015032;28;20021;-75
2020/12/06 09:56:53;;;;;;;25.10;20.45;;;5.80;88.80;;;;;;5015114;28;20470;-74
2020/12/06 09:59:18;;;;;;;25.70;19.92;;;5.80;88.30;;;;;;5014402;28;20102;-75
2020/12/06 10:01:44;;;;;;;25.33;19.33;;;5.80;88.20;;;;;;5015297;28;20045;-74
2020/12/06 10:04:09;;;;;;;24.40;20.23;;;5.80;88.50;;;;;;5015631;28;20045;-75
2020/12/06 10:06:35;;;;;;;23.75;19.92;;;5.90;88.80;;;;;;5014497;28;20068;-74
2020/12/06 10:09:00;;;;;;;23.70;17.70;;;5.90;88.80;;;;;;5014907;28;20497;-74
2020/12/06 10:11:26;;;;;;;23.85;19.80;;;6.00;88.40;;;;;;5015441;28;20078;-74
2020/12/06 10:13:52;;;;;;;23.02;18.25;;;5.90;88.30;;;;;;5014269;28;20026;-74
2020/12/06 10:16:17;;;;;;;26.23;20.10;;;5.90;88.40;;;;;;5032188;28;20569;-74
2020/12/06 10:18:44;;;;;;;25.83;20.23;;;5.80;88.30;;;;;;5014969;28;20026;-75
2020/12/06 10:21:11;;;;;;;26.90;19.95;;;5.80;88.30;;;;;;5032485;28;20025;-73
2020/12/06 10:23:37;;;;;;;26.83;19.20;;;5.90;88.80;;;;;;5014765;28;20067;-72
2020/12/06 10:26:03;;;;;;;25.15;20.30;;;5.90;89.10;;;;;;5014072;28;20511;-73
2020/12/06 10:28:28;;;;;;;42.03;20.65;;;5.90;89.30;;;;;;5000743;28;20049;-78
2020/12/06 10:30:54;;;;;;;23.15;18.45;;;5.90;89.40;;;;;;5010816;28;20021;-82
2020/12/06 10:33:20;;;;;;;23.40;17.48;;;6.00;89.40;;;;;;5015463;28;20037;-92
2020/12/06 10:35:45;;;;;;;24.20;18.95;;;6.00;89.10;;;;;;5034192;28;20474;-85
2020/12/06 10:38:12;;;;;;;22.17;17.58;;;6.10;89.20;;;;;;5033139;28;20409;-81
2020/12/06 10:40:38;;;;;;;23.15;18.10;;;6.20;89.20;;;;;;5015276;28;20017;-74
2020/12/06 10:43:04;;;;;;;23.20;18.73;;;6.20;88.40;;;;;;5029656;28;20060;-83
2020/12/06 10:45:30;;;;;;;22.70;18.50;;;6.30;88.60;;;;;;5026435;28;20030;-73
2020/12/06 10:47:56;;;;;;;22.73;17.58;;;6.40;88.60;;;;;;5014225;28;20044;-78
2020/12/06 10:50:21;;;;;;;22.15;18.27;;;6.40;88.20;;;;;;5015226;28;20577;-75
2020/12/06 10:52:47;;;;;;;23.75;18.45;;;6.30;87.20;;;;;;5015969;28;20025;-73
2020/12/06 10:55:13;;;;;;;22.83;18.98;;;6.20;87.50;;;;;;5032444;28;20096;-74
2020/12/06 10:57:38;;;;;;;25.02;20.55;;;6.20;88.00;;;;;;5014573;28;20482;-73
2020/12/06 11:00:05;;;;;;;24.48;19.85;;;6.20;88.70;;;;;;5031725;28;20163;-74
2020/12/06 11:02:31;;;;;;;23.95;19.30;;;6.20;88.50;;;;;;5031538;28;20398;-75
2020/12/06 11:04:57;;;;;;;22.10;19.02;;;6.30;88.40;;;;;;5014930;28;20009;-73
2020/12/06 11:07:22;;;;;;;23.30;18.77;;;6.30;88.40;;;;;;5036418;28;20037;-82
2020/12/06 11:09:48;;;;;;;23.40;19.10;;;6.40;88.20;;;;;;5019059;28;20421;-82
2020/12/06 11:12:14;;;;;;;23.45;18.77;;;6.60;88.20;;;;;;5036324;28;20378;-78
2020/12/06 11:14:39;;;;;;;23.63;18.77;;;6.70;87.80;;;;;;5018451;28;20071;-76
2020/12/06 11:17:05;;;;;;;22.27;17.40;;;6.80;87.70;;;;;;5034876;28;20030;-76
2020/12/06 11:19:30;;;;;;;25.20;17.58;;;6.90;87.60;;;;;;5036583;28;20649;-76
2020/12/06 11:21:56;;;;;;;23.20;19.33;;;7.00;87.30;;;;;;5035849;28;20096;-77
2020/12/06 11:24:21;;;;;;;22.73;18.23;;;7.00;86.60;;;;;;5035069;28;20049;-73
2020/12/06 11:26:47;;;;;;;21.15;17.60;;;6.90;86.20;;;;;;5015151;28;20021;-83
2020/12/06 11:29:13;;;;;;;24.83;18.08;;;6.90;86.20;;;;;;5016997;28;20055;-77
2020/12/06 11:31:39;;;;;;;24.70;19.42;;;6.80;85.50;;;;;;5018159;28;20025;-79
2020/12/06 11:34:05;;;;;;;22.67;19.65;;;6.60;85.60;;;;;;5018351;28;20809;-78
2020/12/06 11:36:31;;;;;;;27.02;19.60;;;6.60;86.50;;;;;;5017730;28;20117;-79
2020/12/06 11:38:57;;;;;;;24.10;20.00;;;6.60;86.90;;;;;;5018343;28;20061;-79
2020/12/06 11:41:25;;;;;;;23.13;18.67;;;6.60;86.70;;;;;;5017497;28;20032;-81
2020/12/06 11:43:51;;;;;;;22.90;18.88;;;6.70;86.30;;;;;;5017596;28;20129;-79
2020/12/06 11:46:16;;;;;;;23.42;19.17;;;6.70;86.10;;;;;;5019916;28;20100;-78
2020/12/06 11:48:43;;;;;;;24.45;18.58;;;6.70;86.20;;;;;;5015236;28;20025;-78
2020/12/06 11:51:09;;;;;;;23.35;18.40;;;6.70;86.30;;;;;;5016672;28;20033;-80
2020/12/06 11:53:36;;;;;;;22.42;18.95;;;6.80;86.70;;;;;;5035781;28;20021;-77
2020/12/06 11:56:04;;;;;;;21.20;17.70;;;6.90;86.60;;;;;;5017546;28;20026;-78
2020/12/06 11:58:29;;;;;;;23.85;19.08;;;7.00;86.30;;;;;;5016983;28;20112;-73
2020/12/06 12:00:55;;;;;;;23.58;18.70;;;7.00;85.90;;;;;;5017748;28;20116;-72
2020/12/06 12:03:20;;;;;;;21.90;18.92;;;7.10;85.70;;;;;;5016905;28;20099;-78
2020/12/06 12:05:46;;;;;;;23.60;18.17;;;7.10;85.80;;;;;;5034949;28;20029;-78
2020/12/06 12:08:12;;;;;;;22.83;17.52;;;7.20;85.60;;;;;;5035004;28;20033;-74
2020/12/06 12:10:38;;;;;;;22.35;17.30;;;7.30;85.40;;;;;;5035192;28;20505;-74
2020/12/06 12:13:04;;;;;;;26.88;19.77;;;7.40;85.50;;;;;;5016219;28;20415;-73
2020/12/06 12:15:29;;;;;;;23.25;17.30;;;7.40;85.40;;;;;;5017479;28;20030;-72
2020/12/06 12:17:55;;;;;;;20.88;17.65;;;7.50;85.10;;;;;;5016062;28;20021;-74
2020/12/06 12:20:20;;;;;;;23.00;19.08;;;7.50;84.80;;;;;;5016416;28;20029;-74
2020/12/06 12:22:47;;;;;;;23.27;17.75;;;7.50;84.70;;;;;;5035077;28;20429;-73
2020/12/06 12:25:13;;;;;;;21.30;17.75;;;7.40;84.90;;;;;;5036345;28;20573;-74
2020/12/06 12:27:38;;;;;;;21.98;17.67;;;7.50;85.10;;;;;;5035746;28;20112;-75
2020/12/06 12:30:05;;;;;;;24.58;18.25;;;7.50;85.10;;;;;;5029965;28;20021;-74
2020/12/06 12:32:30;;;;;;;19.55;16.83;;;7.60;85.30;;;;;;5036037;28;20401;-74
2020/12/06 12:34:56;;;;;;;19.90;16.70;;;7.60;84.50;;;;;;5043253;28;20033;-73
2020/12/06 12:37:23;;;;;;;21.25;17.02;;;7.60;84.50;;;;;;5035141;28;20030;-77
2020/12/06 12:39:49;;;;;;;20.75;17.65;;;7.60;84.90;;;;;;5027275;28;20117;-75
2020/12/06 12:42:14;;;;;;;39.88;17.08;;;7.60;85.00;;;;;;5016786;28;20144;-76
2020/12/06 12:44:40;;;;;;;22.15;16.92;;;7.70;85.10;;;;;;5014087;28;20379;-78